sensor_id;sensor_type;location;lat;lon;timestamp;P1;durP1;ratioP1;P2;durP2;ratioP2
23159;SDS011;11748;50.844;4.396;2022-07-29T00:00:37;3.88;;;1.30;;
23159;SDS011;11748;50.844;4.396;2022-07-29T00:03:03;4.93;;;1.60;;
23159;SDS011;11748;50.844;4.396;2022-07-29T00:05:29;7.72;;;1.65;;
23159;SDS011;11748;50.844;4.396;2022-07-29T00:07:55;3.40;;;1.45;;
23159;SDS011;11748;50.844;4.396;2022-07-29T00:10:21;3.67;;;1.45;;
23159;SDS011;11748;50.844;4.396;2022-07-29T00:12:50;5.57;;;1.48;;
23159;SDS011;11748;50.844;4.396;2022-07-29T00:15:15;2.60;;;0.98;;
23159;SDS011;11748;50.844;4.396;2022-07-29T00:17:41;4.32;;;1.20;;
23159;SDS011;11748;50.844;4.396;2022-07-29T00:20:07;3.88;;;1.20;;
23159;SDS011;11748;50.844;4.396;2022-07-29T00:22:36;4.10;;;1.20;;
23159;SDS011;11748;50.844;4.396;2022-07-29T00:25:02;4.53;;;1.25;;
23159;SDS011;11748;50.844;4.396;2022-07-29T00:27:28;6.75;;;1.40;;
23159;SDS011;11748;50.844;4.396;2022-07-29T00:29:54;4.68;;;1.20;;
23159;SDS011;11748;50.844;4.396;2022-07-29T00:32:20;4.50;;;1.50;;
23159;SDS011;11748;50.844;4.396;2022-07-29T00:34:45;3.38;;;1.50;;
23159;SDS011;11748;50.844;4.396;2022-07-29T00:37:29;5.17;;;1.37;;
23159;SDS011;11748;50.844;4.396;2022-07-29T00:39:55;7.55;;;1.40;;
23159;SDS011;11748;50.844;4.396;2022-07-29T00:42:21;4.15;;;1.58;;
23159;SDS011;11748;50.844;4.396;2022-07-29T00:44:47;2.58;;;1.20;;
23159;SDS011;11748;50.844;4.396;2022-07-29T00:47:12;3.50;;;1.10;;
23159;SDS011;11748;50.844;4.396;2022-07-29T00:49:39;4.55;;;1.60;;
23159;SDS011;11748;50.844;4.396;2022-07-29T00:52:06;5.25;;;1.67;;
23159;SDS011;11748;50.844;4.396;2022-07-29T00:54:33;5.30;;;1.48;;
23159;SDS011;11748;50.844;4.396;2022-07-29T00:57:00;3.88;;;1.20;;
23159;SDS011;11748;50.844;4.396;2022-07-29T00:59:27;6.93;;;1.77;;
23159;SDS011;11748;50.844;4.396;2022-07-29T01:01:53;3.67;;;1.50;;
23159;SDS011;11748;50.844;4.396;2022-07-29T01:04:20;4.78;;;1.23;;
23159;SDS011;11748;50.844;4.396;2022-07-29T01:06:47;5.53;;;1.40;;
23159;SDS011;11748;50.844;4.396;2022-07-29T01:09:14;4.03;;;1.30;;
23159;SDS011;11748;50.844;4.396;2022-07-29T01:11:41;1.85;;;1.10;;
23159;SDS011;11748;50.844;4.396;2022-07-29T01:14:08;5.28;;;1.30;;
23159;SDS011;11748;50.844;4.396;2022-07-29T01:16:45;6.88;;;1.52;;
23159;SDS011;11748;50.844;4.396;2022-07-29T01:28:20;5.88;;;1.75;;
23159;SDS011;11748;50.844;4.396;2022-07-29T01:31:07;4.63;;;1.55;;
23159;SDS011;11748;50.844;4.396;2022-07-29T01:33:36;4.30;;;1.20;;
23159;SDS011;11748;50.844;4.396;2022-07-29T01:36:35;5.97;;;1.67;;
23159;SDS011;11748;50.844;4.396;2022-07-29T01:39:31;7.10;;;1.80;;
23159;SDS011;11748;50.844;4.396;2022-07-29T01:43:03;4.43;;;1.38;;
23159;SDS011;11748;50.844;4.396;2022-07-29T01:45:10;5.32;;;1.55;;
23159;SDS011;11748;50.844;4.396;2022-07-29T01:47:44;4.18;;;1.55;;
23159;SDS011;11748;50.844;4.396;2022-07-29T01:53:17;6.15;;;1.55;;
23159;SDS011;11748;50.844;4.396;2022-07-29T01:55:51;2.20;;;1.35;;
23159;SDS011;11748;50.844;4.396;2022-07-29T01:58:18;2.67;;;1.42;;
23159;SDS011;11748;50.844;4.396;2022-07-29T02:00:46;6.10;;;1.40;;
23159;SDS011;11748;50.844;4.396;2022-07-29T02:03:13;7.63;;;1.75;;
23159;SDS011;11748;50.844;4.396;2022-07-29T02:05:42;3.17;;;1.55;;
23159;SDS011;11748;50.844;4.396;2022-07-29T02:08:10;4.40;;;1.50;;
23159;SDS011;11748;50.844;4.396;2022-07-29T02:10:38;3.45;;;1.20;;
23159;SDS011;11748;50.844;4.396;2022-07-29T02:13:06;2.13;;;1.17;;
23159;SDS011;11748;50.844;4.396;2022-07-29T02:15:34;3.22;;;1.55;;
23159;SDS011;11748;50.844;4.396;2022-07-29T02:18:02;6.15;;;1.38;;
23159;SDS011;11748;50.844;4.396;2022-07-29T02:20:37;2.88;;;1.30;;
23159;SDS011;11748;50.844;4.396;2022-07-29T02:23:05;3.35;;;1.50;;
23159;SDS011;11748;50.844;4.396;2022-07-29T02:25:32;10.27;;;1.98;;
23159;SDS011;11748;50.844;4.396;2022-07-29T02:27:58;5.13;;;1.52;;
23159;SDS011;11748;50.844;4.396;2022-07-29T02:30:26;3.80;;;1.38;;
23159;SDS011;11748;50.844;4.396;2022-07-29T02:32:54;7.15;;;1.65;;
23159;SDS011;11748;50.844;4.396;2022-07-29T02:35:20;2.90;;;1.50;;
23159;SDS011;11748;50.844;4.396;2022-07-29T02:37:47;6.80;;;1.40;;
23159;SDS011;11748;50.844;4.396;2022-07-29T02:40:33;3.00;;;1.35;;
23159;SDS011;11748;50.844;4.396;2022-07-29T02:43:02;2.45;;;1.38;;
23159;SDS011;11748;50.844;4.396;2022-07-29T02:45:30;5.93;;;1.67;;
23159;SDS011;11748;50.844;4.396;2022-07-29T02:47:57;2.90;;;1.70;;
23159;SDS011;11748;50.844;4.396;2022-07-29T02:50:34;2.78;;;1.50;;
23159;SDS011;11748;50.844;4.396;2022-07-29T02:53:09;4.07;;;1.50;;
23159;SDS011;11748;50.844;4.396;2022-07-29T02:55:47;6.50;;;1.70;;
23159;SDS011;11748;50.844;4.396;2022-07-29T03:00:59;10.88;;;1.95;;
23159;SDS011;11748;50.844;4.396;2022-07-29T03:03:35;4.65;;;1.52;;
23159;SDS011;11748;50.844;4.396;2022-07-29T03:06:03;6.03;;;1.35;;
23159;SDS011;11748;50.844;4.396;2022-07-29T03:08:31;6.28;;;1.60;;
23159;SDS011;11748;50.844;4.396;2022-07-29T03:10:58;7.18;;;1.85;;
23159;SDS011;11748;50.844;4.396;2022-07-29T03:13:26;5.30;;;1.65;;
23159;SDS011;11748;50.844;4.396;2022-07-29T03:15:54;5.53;;;1.75;;
23159;SDS011;11748;50.844;4.396;2022-07-29T03:18:21;7.75;;;1.67;;
23159;SDS011;11748;50.844;4.396;2022-07-29T03:20:47;4.50;;;1.38;;
23159;SDS011;11748;50.844;4.396;2022-07-29T03:23:17;4.85;;;1.60;;
23159;SDS011;11748;50.844;4.396;2022-07-29T03:25:48;7.63;;;1.63;;
23159;SDS011;11748;50.844;4.396;2022-07-29T03:28:14;4.28;;;1.60;;
23159;SDS011;11748;50.844;4.396;2022-07-29T03:30:40;3.22;;;1.40;;
23159;SDS011;11748;50.844;4.396;2022-07-29T03:33:05;3.35;;;1.55;;
23159;SDS011;11748;50.844;4.396;2022-07-29T03:35:31;3.72;;;1.40;;
23159;SDS011;11748;50.844;4.396;2022-07-29T03:37:57;5.68;;;1.70;;
23159;SDS011;11748;50.844;4.396;2022-07-29T03:43:09;8.10;;;2.13;;
23159;SDS011;11748;50.844;4.396;2022-07-29T03:45:36;6.05;;;2.15;;
23159;SDS011;11748;50.844;4.396;2022-07-29T03:48:05;6.53;;;1.60;;
23159;SDS011;11748;50.844;4.396;2022-07-29T03:50:35;4.45;;;1.50;;
23159;SDS011;11748;50.844;4.396;2022-07-29T03:53:01;3.92;;;1.40;;
23159;SDS011;11748;50.844;4.396;2022-07-29T03:55:28;4.07;;;1.65;;
23159;SDS011;11748;50.844;4.396;2022-07-29T03:58:08;5.53;;;1.90;;
23159;SDS011;11748;50.844;4.396;2022-07-29T04:00:35;4.35;;;1.70;;
23159;SDS011;11748;50.844;4.396;2022-07-29T04:03:02;2.88;;;1.75;;
23159;SDS011;11748;50.844;4.396;2022-07-29T04:05:29;5.10;;;1.60;;
23159;SDS011;11748;50.844;4.396;2022-07-29T04:07:55;6.60;;;1.65;;
23159;SDS011;11748;50.844;4.396;2022-07-29T04:10:21;4.63;;;1.73;;
23159;SDS011;11748;50.844;4.396;2022-07-29T04:12:48;4.75;;;1.83;;
23159;SDS011;11748;50.844;4.396;2022-07-29T04:15:14;6.90;;;1.98;;
23159;SDS011;11748;50.844;4.396;2022-07-29T04:17:40;8.40;;;1.80;;
23159;SDS011;11748;50.844;4.396;2022-07-29T04:20:05;3.45;;;1.63;;
23159;SDS011;11748;50.844;4.396;2022-07-29T04:22:31;2.22;;;1.50;;
23159;SDS011;11748;50.844;4.396;2022-07-29T04:24:58;6.25;;;1.80;;
23159;SDS011;11748;50.844;4.396;2022-07-29T04:27:24;12.70;;;2.08;;
23159;SDS011;11748;50.844;4.396;2022-07-29T04:29:50;6.28;;;2.00;;
23159;SDS011;11748;50.844;4.396;2022-07-29T04:32:16;5.07;;;1.88;;
23159;SDS011;11748;50.844;4.396;2022-07-29T04:34:42;3.53;;;1.80;;
23159;SDS011;11748;50.844;4.396;2022-07-29T04:37:08;4.75;;;2.30;;
23159;SDS011;11748;50.844;4.396;2022-07-29T04:39:34;7.22;;;2.20;;
23159;SDS011;11748;50.844;4.396;2022-07-29T04:42:00;4.28;;;2.00;;
23159;SDS011;11748;50.844;4.396;2022-07-29T04:44:26;4.03;;;2.13;;
23159;SDS011;11748;50.844;4.396;2022-07-29T04:46:51;7.72;;;2.40;;
23159;SDS011;11748;50.844;4.396;2022-07-29T04:49:17;5.55;;;2.63;;
23159;SDS011;11748;50.844;4.396;2022-07-29T04:51:44;6.35;;;2.53;;
23159;SDS011;11748;50.844;4.396;2022-07-29T04:54:09;7.97;;;2.72;;
23159;SDS011;11748;50.844;4.396;2022-07-29T04:56:35;7.28;;;2.75;;
23159;SDS011;11748;50.844;4.396;2022-07-29T04:59:01;4.38;;;2.38;;
23159;SDS011;11748;50.844;4.396;2022-07-29T05:01:26;7.50;;;2.70;;
23159;SDS011;11748;50.844;4.396;2022-07-29T05:03:53;9.93;;;2.65;;
23159;SDS011;11748;50.844;4.396;2022-07-29T05:06:19;5.93;;;3.00;;
23159;SDS011;11748;50.844;4.396;2022-07-29T05:08:44;8.02;;;2.58;;
23159;SDS011;11748;50.844;4.396;2022-07-29T05:11:10;5.72;;;2.53;;
23159;SDS011;11748;50.844;4.396;2022-07-29T05:13:36;7.72;;;2.50;;
23159;SDS011;11748;50.844;4.396;2022-07-29T05:16:02;9.52;;;3.00;;
23159;SDS011;11748;50.844;4.396;2022-07-29T05:18:28;5.85;;;2.45;;
23159;SDS011;11748;50.844;4.396;2022-07-29T05:20:54;4.47;;;2.28;;
23159;SDS011;11748;50.844;4.396;2022-07-29T05:23:21;7.20;;;2.90;;
23159;SDS011;11748;50.844;4.396;2022-07-29T05:25:46;8.10;;;2.53;;
23159;SDS011;11748;50.844;4.396;2022-07-29T05:28:12;14.27;;;3.05;;
23159;SDS011;11748;50.844;4.396;2022-07-29T05:30:38;9.38;;;2.75;;
23159;SDS011;11748;50.844;4.396;2022-07-29T05:33:04;7.05;;;2.42;;
23159;SDS011;11748;50.844;4.396;2022-07-29T05:35:29;4.55;;;2.35;;
23159;SDS011;11748;50.844;4.396;2022-07-29T05:37:56;6.65;;;2.72;;
23159;SDS011;11748;50.844;4.396;2022-07-29T05:40:22;5.18;;;2.67;;
23159;SDS011;11748;50.844;4.396;2022-07-29T05:42:47;7.38;;;2.40;;
23159;SDS011;11748;50.844;4.396;2022-07-29T05:45:13;9.35;;;2.83;;
23159;SDS011;11748;50.844;4.396;2022-07-29T05:47:39;5.38;;;2.58;;
23159;SDS011;11748;50.844;4.396;2022-07-29T05:50:06;3.35;;;2.28;;
23159;SDS011;11748;50.844;4.396;2022-07-29T05:52:32;4.10;;;2.50;;
23159;SDS011;11748;50.844;4.396;2022-07-29T05:54:58;4.60;;;2.53;;
23159;SDS011;11748;50.844;4.396;2022-07-29T05:57:24;6.68;;;2.97;;
23159;SDS011;11748;50.844;4.396;2022-07-29T05:59:50;5.63;;;2.92;;
23159;SDS011;11748;50.844;4.396;2022-07-29T06:02:16;5.45;;;2.95;;
23159;SDS011;11748;50.844;4.396;2022-07-29T06:04:42;8.05;;;3.13;;
23159;SDS011;11748;50.844;4.396;2022-07-29T06:07:08;6.15;;;3.17;;
23159;SDS011;11748;50.844;4.396;2022-07-29T06:09:37;11.00;;;2.70;;
23159;SDS011;11748;50.844;4.396;2022-07-29T06:12:03;4.75;;;3.00;;
23159;SDS011;11748;50.844;4.396;2022-07-29T06:14:29;7.43;;;3.17;;
23159;SDS011;11748;50.844;4.396;2022-07-29T06:16:55;5.88;;;2.72;;
23159;SDS011;11748;50.844;4.396;2022-07-29T06:19:21;6.13;;;3.17;;
23159;SDS011;11748;50.844;4.396;2022-07-29T06:21:47;8.32;;;3.10;;
23159;SDS011;11748;50.844;4.396;2022-07-29T06:24:13;5.53;;;2.97;;
23159;SDS011;11748;50.844;4.396;2022-07-29T06:26:40;8.65;;;2.83;;
23159;SDS011;11748;50.844;4.396;2022-07-29T06:29:08;7.55;;;3.13;;
23159;SDS011;11748;50.844;4.396;2022-07-29T06:31:35;6.65;;;2.90;;
23159;SDS011;11748;50.844;4.396;2022-07-29T06:34:01;6.65;;;2.65;;
23159;SDS011;11748;50.844;4.396;2022-07-29T06:36:28;5.65;;;2.53;;
23159;SDS011;11748;50.844;4.396;2022-07-29T06:38:54;7.70;;;2.63;;
23159;SDS011;11748;50.844;4.396;2022-07-29T06:41:19;7.60;;;2.78;;
23159;SDS011;11748;50.844;4.396;2022-07-29T06:43:46;5.95;;;2.40;;
23159;SDS011;11748;50.844;4.396;2022-07-29T06:46:13;4.43;;;2.78;;
23159;SDS011;11748;50.844;4.396;2022-07-29T06:48:41;5.60;;;2.75;;
23159;SDS011;11748;50.844;4.396;2022-07-29T06:56:34;5.40;;;2.53;;
23159;SDS011;11748;50.844;4.396;2022-07-29T06:59:02;7.15;;;2.80;;
23159;SDS011;11748;50.844;4.396;2022-07-29T07:01:28;5.15;;;2.53;;
23159;SDS011;11748;50.844;4.396;2022-07-29T07:03:54;6.95;;;3.00;;
23159;SDS011;11748;50.844;4.396;2022-07-29T07:06:19;5.88;;;2.55;;
23159;SDS011;11748;50.844;4.396;2022-07-29T07:08:46;9.50;;;3.15;;
23159;SDS011;11748;50.844;4.396;2022-07-29T07:11:13;7.03;;;3.15;;
23159;SDS011;11748;50.844;4.396;2022-07-29T07:13:39;7.60;;;3.50;;
23159;SDS011;11748;50.844;4.396;2022-07-29T07:16:05;5.00;;;2.80;;
23159;SDS011;11748;50.844;4.396;2022-07-29T07:18:30;3.67;;;2.40;;
23159;SDS011;11748;50.844;4.396;2022-07-29T07:20:56;6.68;;;3.03;;
23159;SDS011;11748;50.844;4.396;2022-07-29T07:23:24;8.25;;;2.83;;
23159;SDS011;11748;50.844;4.396;2022-07-29T07:25:50;6.03;;;2.83;;
23159;SDS011;11748;50.844;4.396;2022-07-29T07:28:16;7.22;;;2.90;;
23159;SDS011;11748;50.844;4.396;2022-07-29T07:30:42;5.75;;;2.83;;
23159;SDS011;11748;50.844;4.396;2022-07-29T07:33:07;7.65;;;2.80;;
23159;SDS011;11748;50.844;4.396;2022-07-29T07:35:34;4.35;;;2.78;;
23159;SDS011;11748;50.844;4.396;2022-07-29T07:38:00;8.43;;;2.80;;
23159;SDS011;11748;50.844;4.396;2022-07-29T07:40:32;4.63;;;2.88;;
23159;SDS011;11748;50.844;4.396;2022-07-29T07:42:58;4.28;;;2.90;;
23159;SDS011;11748;50.844;4.396;2022-07-29T07:45:24;5.22;;;3.30;;
23159;SDS011;11748;50.844;4.396;2022-07-29T07:47:52;5.85;;;3.10;;
23159;SDS011;11748;50.844;4.396;2022-07-29T07:50:20;6.88;;;3.15;;
23159;SDS011;11748;50.844;4.396;2022-07-29T07:52:49;8.13;;;3.33;;
23159;SDS011;11748;50.844;4.396;2022-07-29T07:55:17;6.25;;;3.03;;
23159;SDS011;11748;50.844;4.396;2022-07-29T07:57:45;11.38;;;3.47;;
23159;SDS011;11748;50.844;4.396;2022-07-29T08:00:14;4.93;;;3.25;;
23159;SDS011;11748;50.844;4.396;2022-07-29T08:02:42;8.55;;;3.40;;
23159;SDS011;11748;50.844;4.396;2022-07-29T08:05:10;8.50;;;3.83;;
23159;SDS011;11748;50.844;4.396;2022-07-29T08:07:37;6.43;;;3.33;;
23159;SDS011;11748;50.844;4.396;2022-07-29T08:10:03;9.40;;;4.60;;
23159;SDS011;11748;50.844;4.396;2022-07-29T08:12:29;8.40;;;3.42;;
23159;SDS011;11748;50.844;4.396;2022-07-29T08:14:54;8.82;;;3.70;;
23159;SDS011;11748;50.844;4.396;2022-07-29T08:17:20;9.27;;;3.83;;
23159;SDS011;11748;50.844;4.396;2022-07-29T08:19:48;5.60;;;3.67;;
23159;SDS011;11748;50.844;4.396;2022-07-29T08:22:14;8.73;;;3.28;;
23159;SDS011;11748;50.844;4.396;2022-07-29T08:24:40;6.07;;;3.20;;
23159;SDS011;11748;50.844;4.396;2022-07-29T08:27:12;6.22;;;2.75;;
23159;SDS011;11748;50.844;4.396;2022-07-29T08:29:38;5.38;;;2.78;;
23159;SDS011;11748;50.844;4.396;2022-07-29T08:32:07;4.22;;;2.80;;
23159;SDS011;11748;50.844;4.396;2022-07-29T08:34:32;5.63;;;2.47;;
23159;SDS011;11748;50.844;4.396;2022-07-29T08:36:58;6.15;;;2.40;;
23159;SDS011;11748;50.844;4.396;2022-07-29T08:39:24;5.18;;;2.45;;
23159;SDS011;11748;50.844;4.396;2022-07-29T08:41:50;7.95;;;3.40;;
23159;SDS011;11748;50.844;4.396;2022-07-29T08:44:17;6.10;;;2.33;;
23159;SDS011;11748;50.844;4.396;2022-07-29T08:46:43;4.25;;;2.22;;
23159;SDS011;11748;50.844;4.396;2022-07-29T08:49:09;7.03;;;2.28;;
23159;SDS011;11748;50.844;4.396;2022-07-29T08:51:36;2.60;;;1.90;;
23159;SDS011;11748;50.844;4.396;2022-07-29T08:54:04;3.55;;;1.90;;
23159;SDS011;11748;50.844;4.396;2022-07-29T08:56:31;5.60;;;1.92;;
23159;SDS011;11748;50.844;4.396;2022-07-29T08:58:58;3.17;;;2.08;;
23159;SDS011;11748;50.844;4.396;2022-07-29T09:01:27;5.03;;;1.67;;
23159;SDS011;11748;50.844;4.396;2022-07-29T09:03:56;2.50;;;1.55;;
23159;SDS011;11748;50.844;4.396;2022-07-29T09:06:24;2.38;;;1.27;;
23159;SDS011;11748;50.844;4.396;2022-07-29T09:08:53;5.82;;;1.60;;
23159;SDS011;11748;50.844;4.396;2022-07-29T09:11:21;3.08;;;1.52;;
23159;SDS011;11748;50.844;4.396;2022-07-29T09:13:47;6.68;;;1.40;;
23159;SDS011;11748;50.844;4.396;2022-07-29T09:16:14;3.30;;;1.80;;
23159;SDS011;11748;50.844;4.396;2022-07-29T09:18:41;4.90;;;1.90;;
23159;SDS011;11748;50.844;4.396;2022-07-29T09:21:10;3.72;;;1.90;;
23159;SDS011;11748;50.844;4.396;2022-07-29T09:24:03;4.60;;;1.65;;
23159;SDS011;11748;50.844;4.396;2022-07-29T09:26:32;2.88;;;1.45;;
23159;SDS011;11748;50.844;4.396;2022-07-29T09:29:01;3.75;;;1.90;;
23159;SDS011;11748;50.844;4.396;2022-07-29T09:31:42;2.92;;;1.75;;
23159;SDS011;11748;50.844;4.396;2022-07-29T09:34:10;3.53;;;2.03;;
23159;SDS011;11748;50.844;4.396;2022-07-29T09:36:40;7.03;;;2.20;;
23159;SDS011;11748;50.844;4.396;2022-07-29T09:39:07;4.40;;;1.33;;
23159;SDS011;11748;50.844;4.396;2022-07-29T09:41:49;2.50;;;1.02;;
23159;SDS011;11748;50.844;4.396;2022-07-29T09:44:19;11.55;;;1.60;;
23159;SDS011;11748;50.844;4.396;2022-07-29T09:46:53;5.82;;;1.48;;
23159;SDS011;11748;50.844;4.396;2022-07-29T09:49:20;5.68;;;1.77;;
23159;SDS011;11748;50.844;4.396;2022-07-29T09:51:46;3.83;;;1.90;;
23159;SDS011;11748;50.844;4.396;2022-07-29T09:56:48;6.38;;;1.70;;
23159;SDS011;11748;50.844;4.396;2022-07-29T09:59:15;7.78;;;1.65;;
23159;SDS011;11748;50.844;4.396;2022-07-29T10:01:42;6.72;;;1.60;;
23159;SDS011;11748;50.844;4.396;2022-07-29T10:04:08;4.80;;;1.80;;
23159;SDS011;11748;50.844;4.396;2022-07-29T10:06:34;5.53;;;1.73;;
23159;SDS011;11748;50.844;4.396;2022-07-29T10:09:06;4.32;;;2.08;;
23159;SDS011;11748;50.844;4.396;2022-07-29T10:11:33;5.18;;;1.80;;
23159;SDS011;11748;50.844;4.396;2022-07-29T10:13:59;3.95;;;1.75;;
23159;SDS011;11748;50.844;4.396;2022-07-29T10:16:27;4.70;;;2.45;;
23159;SDS011;11748;50.844;4.396;2022-07-29T10:18:57;6.43;;;1.77;;
23159;SDS011;11748;50.844;4.396;2022-07-29T10:21:27;3.90;;;2.00;;
23159;SDS011;11748;50.844;4.396;2022-07-29T10:23:55;8.75;;;2.03;;
23159;SDS011;11748;50.844;4.396;2022-07-29T10:26:23;5.47;;;2.15;;
23159;SDS011;11748;50.844;4.396;2022-07-29T10:28:49;3.22;;;1.52;;
23159;SDS011;11748;50.844;4.396;2022-07-29T10:31:17;3.22;;;1.70;;
23159;SDS011;11748;50.844;4.396;2022-07-29T10:34:04;3.25;;;1.40;;
23159;SDS011;11748;50.844;4.396;2022-07-29T10:36:56;5.50;;;1.80;;
23159;SDS011;11748;50.844;4.396;2022-07-29T10:42:23;6.65;;;1.92;;
23159;SDS011;11748;50.844;4.396;2022-07-29T10:44:51;6.80;;;1.42;;
23159;SDS011;11748;50.844;4.396;2022-07-29T10:47:22;5.95;;;1.40;;
23159;SDS011;11748;50.844;4.396;2022-07-29T10:49:58;7.03;;;2.08;;
23159;SDS011;11748;50.844;4.396;2022-07-29T10:55:39;4.43;;;1.33;;
23159;SDS011;11748;50.844;4.396;2022-07-29T10:58:17;5.40;;;1.50;;
23159;SDS011;11748;50.844;4.396;2022-07-29T11:04:04;2.33;;;1.20;;
23159;SDS011;11748;50.844;4.396;2022-07-29T11:09:30;5.07;;;1.40;;
23159;SDS011;11748;50.844;4.396;2022-07-29T11:11:57;4.78;;;1.40;;
23159;SDS011;11748;50.844;4.396;2022-07-29T11:17:17;2.88;;;1.80;;
23159;SDS011;11748;50.844;4.396;2022-07-29T11:19:43;7.03;;;1.60;;
23159;SDS011;11748;50.844;4.396;2022-07-29T11:22:10;3.67;;;1.60;;
23159;SDS011;11748;50.844;4.396;2022-07-29T11:24:38;7.25;;;1.90;;
23159;SDS011;11748;50.844;4.396;2022-07-29T11:29:52;5.07;;;2.28;;
23159;SDS011;11748;50.844;4.396;2022-07-29T11:32:35;7.40;;;2.38;;
23159;SDS011;11748;50.844;4.396;2022-07-29T11:35:16;4.90;;;2.10;;
23159;SDS011;11748;50.844;4.396;2022-07-29T11:37:47;6.55;;;2.53;;
23159;SDS011;11748;50.844;4.396;2022-07-29T11:41:34;6.22;;;2.22;;
23159;SDS011;11748;50.844;4.396;2022-07-29T11:43:48;4.65;;;1.95;;
23159;SDS011;11748;50.844;4.396;2022-07-29T11:46:18;6.15;;;2.35;;
23159;SDS011;11748;50.844;4.396;2022-07-29T11:49:02;6.15;;;2.60;;
23159;SDS011;11748;50.844;4.396;2022-07-29T11:51:30;8.00;;;2.97;;
23159;SDS011;11748;50.844;4.396;2022-07-29T11:53:57;6.38;;;3.15;;
23159;SDS011;11748;50.844;4.396;2022-07-29T11:56:40;6.25;;;2.35;;
23159;SDS011;11748;50.844;4.396;2022-07-29T11:59:08;5.37;;;2.30;;
23159;SDS011;11748;50.844;4.396;2022-07-29T12:01:51;6.68;;;2.17;;
23159;SDS011;11748;50.844;4.396;2022-07-29T12:04:21;5.47;;;3.05;;
23159;SDS011;11748;50.844;4.396;2022-07-29T12:06:51;6.25;;;2.67;;
23159;SDS011;11748;50.844;4.396;2022-07-29T12:09:20;7.07;;;3.20;;
23159;SDS011;11748;50.844;4.396;2022-07-29T12:11:48;7.22;;;3.22;;
23159;SDS011;11748;50.844;4.396;2022-07-29T12:14:27;7.40;;;2.85;;
23159;SDS011;11748;50.844;4.396;2022-07-29T12:16:54;7.40;;;2.88;;
23159;SDS011;11748;50.844;4.396;2022-07-29T12:19:20;4.82;;;2.90;;
23159;SDS011;11748;50.844;4.396;2022-07-29T12:21:46;5.32;;;2.40;;
23159;SDS011;11748;50.844;4.396;2022-07-29T12:24:13;6.38;;;3.00;;
23159;SDS011;11748;50.844;4.396;2022-07-29T12:26:53;5.70;;;2.60;;
23159;SDS011;11748;50.844;4.396;2022-07-29T12:29:18;4.35;;;2.22;;
23159;SDS011;11748;50.844;4.396;2022-07-29T12:31:44;5.82;;;3.05;;
23159;SDS011;11748;50.844;4.396;2022-07-29T12:34:15;6.47;;;2.53;;
23159;SDS011;11748;50.844;4.396;2022-07-29T12:36:41;7.68;;;2.92;;
23159;SDS011;11748;50.844;4.396;2022-07-29T12:39:08;5.28;;;2.58;;
23159;SDS011;11748;50.844;4.396;2022-07-29T12:41:35;5.72;;;2.60;;
23159;SDS011;11748;50.844;4.396;2022-07-29T12:44:02;4.93;;;1.98;;
23159;SDS011;11748;50.844;4.396;2022-07-29T12:46:28;5.22;;;1.90;;
23159;SDS011;11748;50.844;4.396;2022-07-29T12:48:54;9.13;;;2.70;;
23159;SDS011;11748;50.844;4.396;2022-07-29T12:51:34;3.92;;;2.30;;
23159;SDS011;11748;50.844;4.396;2022-07-29T12:54:11;4.40;;;1.95;;
23159;SDS011;11748;50.844;4.396;2022-07-29T12:56:38;5.68;;;3.05;;
23159;SDS011;11748;50.844;4.396;2022-07-29T13:01:45;4.93;;;2.00;;
23159;SDS011;11748;50.844;4.396;2022-07-29T13:04:30;3.70;;;2.00;;
23159;SDS011;11748;50.844;4.396;2022-07-29T13:07:06;7.57;;;2.60;;
23159;SDS011;11748;50.844;4.396;2022-07-29T13:09:36;5.97;;;2.10;;
23159;SDS011;11748;50.844;4.396;2022-07-29T13:12:07;6.80;;;2.53;;
23159;SDS011;11748;50.844;4.396;2022-07-29T13:14:38;6.68;;;2.10;;
23159;SDS011;11748;50.844;4.396;2022-07-29T13:17:08;6.00;;;2.08;;
23159;SDS011;11748;50.844;4.396;2022-07-29T13:22:07;4.18;;;1.70;;
23159;SDS011;11748;50.844;4.396;2022-07-29T13:24:45;4.57;;;1.67;;
23159;SDS011;11748;50.844;4.396;2022-07-29T13:27:18;5.38;;;2.22;;
23159;SDS011;11748;50.844;4.396;2022-07-29T13:29:49;4.07;;;1.60;;
23159;SDS011;11748;50.844;4.396;2022-07-29T13:32:18;4.05;;;1.65;;
23159;SDS011;11748;50.844;4.396;2022-07-29T13:34:47;4.13;;;1.63;;
23159;SDS011;11748;50.844;4.396;2022-07-29T13:37:15;6.78;;;1.40;;
23159;SDS011;11748;50.844;4.396;2022-07-29T13:39:41;7.03;;;1.63;;
23159;SDS011;11748;50.844;4.396;2022-07-29T13:42:08;7.50;;;1.88;;
23159;SDS011;11748;50.844;4.396;2022-07-29T13:44:34;3.28;;;1.48;;
23159;SDS011;11748;50.844;4.396;2022-07-29T13:47:00;4.82;;;1.58;;
23159;SDS011;11748;50.844;4.396;2022-07-29T13:49:26;8.05;;;1.73;;
23159;SDS011;11748;50.844;4.396;2022-07-29T13:51:52;5.25;;;1.70;;
23159;SDS011;11748;50.844;4.396;2022-07-29T13:54:19;4.47;;;1.40;;
23159;SDS011;11748;50.844;4.396;2022-07-29T13:56:45;4.60;;;1.30;;
23159;SDS011;11748;50.844;4.396;2022-07-29T13:59:11;5.13;;;1.88;;
23159;SDS011;11748;50.844;4.396;2022-07-29T14:01:38;4.88;;;1.50;;
23159;SDS011;11748;50.844;4.396;2022-07-29T14:04:06;3.22;;;1.55;;
23159;SDS011;11748;50.844;4.396;2022-07-29T14:06:32;7.82;;;1.80;;
23159;SDS011;11748;50.844;4.396;2022-07-29T14:08:58;2.90;;;1.10;;
23159;SDS011;11748;50.844;4.396;2022-07-29T14:11:24;5.50;;;1.38;;
23159;SDS011;11748;50.844;4.396;2022-07-29T14:13:49;4.43;;;1.20;;
23159;SDS011;11748;50.844;4.396;2022-07-29T14:16:15;5.10;;;1.60;;
23159;SDS011;11748;50.844;4.396;2022-07-29T14:18:41;3.75;;;1.50;;
23159;SDS011;11748;50.844;4.396;2022-07-29T14:21:07;3.78;;;1.15;;
23159;SDS011;11748;50.844;4.396;2022-07-29T14:23:34;5.18;;;1.42;;
23159;SDS011;11748;50.844;4.396;2022-07-29T14:26:02;4.53;;;1.00;;
23159;SDS011;11748;50.844;4.396;2022-07-29T14:28:28;4.60;;;1.52;;
23159;SDS011;11748;50.844;4.396;2022-07-29T14:30:54;4.03;;;1.30;;
23159;SDS011;11748;50.844;4.396;2022-07-29T14:33:20;3.92;;;1.40;;
23159;SDS011;11748;50.844;4.396;2022-07-29T14:35:45;3.33;;;1.30;;
23159;SDS011;11748;50.844;4.396;2022-07-29T14:38:11;7.07;;;1.27;;
23159;SDS011;11748;50.844;4.396;2022-07-29T14:40:37;3.30;;;1.48;;
23159;SDS011;11748;50.844;4.396;2022-07-29T14:43:03;4.95;;;1.27;;
23159;SDS011;11748;50.844;4.396;2022-07-29T14:45:30;3.75;;;1.30;;
23159;SDS011;11748;50.844;4.396;2022-07-29T14:50:25;3.97;;;1.50;;
23159;SDS011;11748;50.844;4.396;2022-07-29T14:52:51;2.97;;;1.10;;
23159;SDS011;11748;50.844;4.396;2022-07-29T14:55:17;3.55;;;1.20;;
23159;SDS011;11748;50.844;4.396;2022-07-29T14:57:43;3.90;;;2.83;;
23159;SDS011;11748;50.844;4.396;2022-07-29T15:00:15;4.90;;;1.85;;
23159;SDS011;11748;50.844;4.396;2022-07-29T15:02:41;2.70;;;1.40;;
23159;SDS011;11748;50.844;4.396;2022-07-29T15:05:09;3.15;;;1.20;;
23159;SDS011;11748;50.844;4.396;2022-07-29T15:07:36;6.53;;;1.33;;
23159;SDS011;11748;50.844;4.396;2022-07-29T15:10:02;4.68;;;1.50;;
23159;SDS011;11748;50.844;4.396;2022-07-29T15:12:30;5.60;;;1.27;;
23159;SDS011;11748;50.844;4.396;2022-07-29T15:14:56;6.35;;;1.70;;
23159;SDS011;11748;50.844;4.396;2022-07-29T15:19:51;4.65;;;1.50;;
23159;SDS011;11748;50.844;4.396;2022-07-29T15:22:17;3.47;;;1.10;;
23159;SDS011;11748;50.844;4.396;2022-07-29T15:27:11;8.85;;;2.28;;
23159;SDS011;11748;50.844;4.396;2022-07-29T15:29:40;3.17;;;1.48;;
23159;SDS011;11748;50.844;4.396;2022-07-29T15:32:06;6.95;;;1.63;;
23159;SDS011;11748;50.844;4.396;2022-07-29T15:34:32;4.43;;;1.92;;
23159;SDS011;11748;50.844;4.396;2022-07-29T15:36:58;3.47;;;1.80;;
23159;SDS011;11748;50.844;4.396;2022-07-29T15:39:24;6.95;;;1.70;;
23159;SDS011;11748;50.844;4.396;2022-07-29T15:41:51;3.63;;;1.63;;
23159;SDS011;11748;50.844;4.396;2022-07-29T15:44:18;3.53;;;1.40;;
23159;SDS011;11748;50.844;4.396;2022-07-29T15:46:44;4.13;;;1.60;;
23159;SDS011;11748;50.844;4.396;2022-07-29T15:49:31;5.70;;;1.40;;
23159;SDS011;11748;50.844;4.396;2022-07-29T15:52:01;2.72;;;1.42;;